Time;durP1;ratioP1;P1;durP2;ratioP2;P2;SDS_P1;SDS_P2;PMS_P1;PMS_P2;Temp;Humidity;BMP_temperature;BMP_pressure;BME280_temperature;BME280_humidity;BME280_pressure;Samples;Min_cycle;Max_cycle;Signal;HPM_P1;HPM_P2
2022/10/29 00:00:13;;;;;;;10.57;2.95;;;;;15.10;94882.00;;;;7396813;19;20184;-74
2022/10/29 00:02:40;;;;;;;10.32;3.15;;;;;15.10;94881.00;;;;7397400;19;20136;-77
2022/10/29 00:05:14;;;;;;;6.35;2.78;;;;;15.00;94872.00;;;;7392215;19;20507;-76
2022/10/29 00:07:41;;;;;;;9.90;2.95;;;;;15.00;94875.00;;;;7396423;19;20140;-75
2022/10/29 00:10:09;;;;;;;10.70;3.22;;;;;15.00;94877.00;;;;7397025;19;20133;-76
2022/10/29 00:12:43;;;;;;;10.27;3.08;;;;;14.90;94869.00;;;;7394660;19;20683;-76
2022/10/29 00:15:10;;;;;;;8.18;2.88;;;;;14.80;94868.00;;;;7397542;19;20132;-76
2022/10/29 00:17:38;;;;;;;13.63;3.00;;;;;14.60;94869.00;;;;7396854;19;20162;-76
2022/10/29 00:20:12;;;;;;;9.13;2.92;;;;;14.50;94865.00;;;;7394072;19;20636;-76
2022/10/29 00:22:39;;;;;;;10.07;2.80;;;;;14.20;94874.00;;;;7394547;19;20152;-76
2022/10/29 00:25:07;;;;;;;12.63;3.33;;;;;14.20;94869.00;;;;7394955;19;20116;-76
2022/10/29 00:27:41;;;;;;;13.50;3.10;;;;;14.30;94865.00;;;;7393394;19;20148;-76
2022/10/29 00:30:10;;;;;;;15.05;3.00;;;;;14.40;94859.00;;;;7393749;19;20164;-74
2022/10/29 00:32:42;;;;;;;12.70;2.60;;;;;14.60;94862.00;;;;7395012;19;20153;-76
2022/10/29 00:35:16;;;;;;;9.13;2.80;;;;;14.60;94864.00;;;;7393512;19;20140;-76
2022/10/29 00:37:43;;;;;;;15.40;3.75;;;;;14.60;94857.00;;;;7392481;19;20638;-76
2022/10/29 00:40:11;;;;;;;10.70;3.63;;;;;14.50;94867.00;;;;7396201;19;20535;-75
2022/10/29 00:42:45;;;;;;;16.42;3.35;;;;;14.50;94868.00;;;;7396165;19;20125;-76
2022/10/29 00:45:19;;;;;;;17.58;3.00;;;;;14.60;94870.00;;;;7395033;19;20141;-76
2022/10/29 00:47:53;;;;;;;15.73;3.65;;;;;14.70;94859.00;;;;7393349;19;20547;-76
2022/10/29 00:50:23;;;;;;;15.15;2.85;;;;;14.80;94871.00;;;;7393701;19;20137;-76
2022/10/29 00:52:57;;;;;;;13.75;3.13;;;;;14.90;94866.00;;;;7395196;19;20211;-76
2022/10/29 00:55:31;;;;;;;8.95;2.85;;;;;15.00;94866.00;;;;7396140;19;20163;-76
2022/10/29 00:58:05;;;;;;;11.90;3.28;;;;;15.20;94857.00;;;;7392770;19;20152;-76
2022/10/29 01:00:46;;;;;;;13.63;3.05;;;;;15.10;94856.00;;;;7393976;19;20491;-76
2022/10/29 01:03:14;;;;;;;8.75;3.03;;;;;14.90;94860.00;;;;7396369;19;20163;-75
2022/10/29 01:05:50;;;;;;;10.90;3.30;;;;;14.70;94861.00;;;;7392479;19;20156;-75
2022/10/29 01:08:22;;;;;;;9.35;3.15;;;;;14.70;94861.00;;;;7394842;19;20164;-75
2022/10/29 01:11:30;;;;;;;16.50;3.25;;;;;14.50;94860.00;;;;7394084;19;20223;-76
2022/10/29 01:14:06;;;;;;;16.63;3.33;;;;;14.40;94856.00;;;;7393347;19;20219;-76
2022/10/29 01:17:01;;;;;;;10.05;2.80;;;;;14.30;94851.00;;;;7393961;19;20157;-76
2022/10/29 01:19:53;;;;;;;12.23;2.97;;;;;14.30;94861.00;;;;7395007;19;20151;-75
2022/10/29 01:22:28;;;;;;;12.90;3.33;;;;;14.40;94854.00;;;;7396430;19;20611;-75
2022/10/29 01:25:17;;;;;;;15.73;3.45;;;;;14.50;94848.00;;;;7395546;19;20186;-76
2022/10/29 01:28:19;;;;;;;15.65;3.53;;;;;14.70;94840.00;;;;7394030;19;20599;-76
2022/10/29 01:31:15;;;;;;;8.05;2.97;;;;;14.80;94842.00;;;;7396573;19;20149;-75
2022/10/29 01:34:12;;;;;;;10.65;3.03;;;;;15.00;94836.00;;;;7393499;19;20176;-75
2022/10/29 01:37:07;;;;;;;15.07;3.05;;;;;15.30;94833.00;;;;7394783;19;20132;-74
2022/10/29 01:39:44;;;;;;;10.25;3.20;;;;;15.40;94837.00;;;;7395688;19;20518;-74
2022/10/29 01:42:35;;;;;;;16.80;3.33;;;;;15.60;94837.00;;;;7395529;19;20592;-73
2022/10/29 01:45:16;;;;;;;18.83;3.35;;;;;15.80;94828.00;;;;7393267;19;20161;-75
2022/10/29 01:48:01;;;;;;;12.40;3.15;;;;;16.00;94820.00;;;;7396013;19;20469;-75
2022/10/29 01:50:33;;;;;;;13.48;3.03;;;;;16.10;94812.00;;;;7393293;19;20864;-74
2022/10/29 01:53:06;;;;;;;10.45;2.90;;;;;16.30;94805.00;;;;7392319;19;20651;-74
2022/10/29 01:55:38;;;;;;;9.52;3.20;;;;;16.60;94803.00;;;;7394382;19;20152;-74
2022/10/29 01:58:08;;;;;;;16.92;3.67;;;;;16.80;94816.00;;;;7392988;19;20658;-75
2022/10/29 02:01:45;;;;;;;8.52;3.05;;;;;16.70;94804.00;;;;7391387;19;20135;-75
2022/10/29 02:04:27;;;;;;;11.60;3.10;;;;;16.60;94811.00;;;;7391759;19;20186;-76
2022/10/29 02:07:24;;;;;;;14.50;3.33;;;;;16.20;94810.00;;;;7392269;19;20573;-75
2022/10/29 02:10:01;;;;;;;18.70;3.35;;;;;16.40;94801.00;;;;7395195;19;20145;-74
2022/10/29 02:12:46;;;;;;;12.55;2.53;;;;;16.30;94801.00;;;;7399430;19;20157;-75
2022/10/29 02:15:34;;;;;;;10.65;2.97;;;;;16.60;94802.00;;;;7399794;19;20145;-75
2022/10/29 02:18:08;;;;;;;14.68;3.20;;;;;16.70;94799.00;;;;7398637;19;20157;-75
2022/10/29 02:20:41;;;;;;;11.52;2.92;;;;;16.80;94798.00;;;;7398672;19;20147;-75
2022/10/29 02:23:16;;;;;;;15.27;3.03;;;;;16.90;94791.00;;;;7400932;19;20140;-74
2022/10/29 02:25:43;;;;;;;13.85;3.40;;;;;16.90;94797.00;;;;7397245;19;20152;-75
2022/10/29 02:28:11;;;;;;;8.70;3.10;;;;;16.80;94793.00;;;;7397066;19;20176;-74
2022/10/29 02:30:49;;;;;;;12.55;3.25;;;;;17.10;94792.00;;;;7398602;19;20603;-77
2022/10/29 02:33:17;;;;;;;13.18;2.88;;;;;17.00;94786.00;;;;7399822;19;20137;-76
2022/10/29 02:35:52;;;;;;;14.88;2.97;;;;;17.30;94785.00;;;;7399512;19;20200;-73
2022/10/29 02:38:25;;;;;;;9.00;2.60;;;;;17.10;94782.00;;;;7396940;19;20167;-76
2022/10/29 02:40:55;;;;;;;14.07;3.60;;;;;17.10;94779.00;;;;7398013;19;20148;-76
2022/10/29 02:43:22;;;;;;;8.00;2.42;;;;;17.10;94780.00;;;;7402127;19;20137;-75
2022/10/29 02:46:17;;;;;;;13.50;2.67;;;;;17.20;94776.00;;;;7395730;19;20132;-74
2022/10/29 02:48:44;;;;;;;12.00;3.10;;;;;17.30;94769.00;;;;7398573;19;20132;-76
2022/10/29 02:51:18;;;;;;;16.00;3.03;;;;;17.20;94776.00;;;;7400095;19;20136;-75
2022/10/29 02:53:46;;;;;;;22.30;3.40;;;;;17.40;94775.00;;;;7400045;19;20153;-75
2022/10/29 02:56:13;;;;;;;16.02;3.03;;;;;17.50;94767.00;;;;7397815;19;20129;-74
2022/10/29 02:59:01;;;;;;;9.85;2.67;;;;;17.60;94774.00;;;;7395723;19;20179;-75
2022/10/29 03:01:38;;;;;;;14.35;2.90;;;;;17.40;94786.00;;;;7396634;19;20150;-75
2022/10/29 03:04:13;;;;;;;12.40;3.20;;;;;17.60;94782.00;;;;7399975;19;20129;-76
2022/10/29 03:06:40;;;;;;;13.00;3.00;;;;;17.70;94782.00;;;;7397467;19;20135;-76
2022/10/29 03:09:08;;;;;;;14.00;3.03;;;;;17.80;94780.00;;;;7396212;19;20550;-75
2022/10/29 03:11:41;;;;;;;9.57;3.20;;;;;17.80;94783.00;;;;7398977;19;20143;-75
2022/10/29 03:14:13;;;;;;;12.48;3.00;;;;;17.70;94781.00;;;;7395938;19;20500;-74
2022/10/29 03:16:41;;;;;;;13.32;3.30;;;;;17.90;94775.00;;;;7398658;19;20141;-74
2022/10/29 03:19:15;;;;;;;19.23;3.35;;;;;17.90;94777.00;;;;7398504;19;20137;-75
2022/10/29 03:21:42;;;;;;;13.48;3.28;;;;;17.90;94779.00;;;;7397870;19;20133;-76
2022/10/29 03:24:09;;;;;;;16.20;3.17;;;;;17.80;94768.00;;;;7399409;19;20137;-76
2022/10/29 03:26:44;;;;;;;11.45;3.15;;;;;17.60;94769.00;;;;7395851;19;20166;-76
2022/10/29 03:29:13;;;;;;;17.52;3.97;;;;;17.60;94768.00;;;;7394532;19;20187;-76
2022/10/29 03:31:41;;;;;;;7.63;2.83;;;;;17.30;94764.00;;;;7397474;19;20205;-75
2022/10/29 03:34:15;;;;;;;11.10;2.78;;;;;17.10;94762.00;;;;7398334;19;20151;-76
2022/10/29 03:36:42;;;;;;;12.50;3.20;;;;;17.20;94773.00;;;;7398079;19;20129;-74
2022/10/29 03:39:12;;;;;;;12.75;2.90;;;;;17.20;94763.00;;;;7396566;19;20568;-75
2022/10/29 03:41:52;;;;;;;8.40;2.70;;;;;17.30;94765.00;;;;7398336;19;20137;-75
2022/10/29 03:44:19;;;;;;;6.57;2.42;;;;;17.10;94771.00;;;;7396395;19;20208;-76
2022/10/29 03:46:53;;;;;;;11.95;3.25;;;;;17.40;94763.00;;;;7394500;19;20137;-76
2022/10/29 03:49:21;;;;;;;11.35;2.58;;;;;17.70;94764.00;;;;7398916;19;20128;-75
2022/10/29 03:51:48;;;;;;;8.25;2.78;;;;;17.60;94769.00;;;;7396399;19;20182;-75
2022/10/29 03:54:22;;;;;;;7.10;3.13;;;;;17.60;94780.00;;;;7394618;19;20137;-74
2022/10/29 03:56:49;;;;;;;18.63;3.47;;;;;17.80;94773.00;;;;7396964;19;20669;-74
2022/10/29 03:59:17;;;;;;;10.13;2.83;;;;;17.90;94773.00;;;;7396386;19;20183;-75
2022/10/29 04:01:58;;;;;;;11.40;3.08;;;;;17.90;94772.00;;;;7396504;19;20164;-75
2022/10/29 04:04:26;;;;;;;18.58;3.55;;;;;17.70;94767.00;;;;7398244;19;20125;-73
2022/10/29 04:06:59;;;;;;;12.55;2.80;;;;;17.80;94761.00;;;;7395860;19;20163;-75
2022/10/29 04:09:26;;;;;;;9.68;2.72;;;;;17.80;94761.00;;;;7393066;19;20177;-74
2022/10/29 04:11:54;;;;;;;15.02;3.10;;;;;17.90;94756.00;;;;7395983;19;20189;-75
2022/10/29 04:14:32;;;;;;;11.40;3.33;;;;;17.80;94766.00;;;;7395951;19;20616;-75
2022/10/29 04:17:00;;;;;;;10.82;3.40;;;;;17.80;94764.00;;;;7397620;19;20151;-75
2022/10/29 04:19:28;;;;;;;8.57;2.80;;;;;17.60;94766.00;;;;7395647;19;20587;-75
2022/10/29 04:22:02;;;;;;;10.02;2.58;;;;;17.70;94766.00;;;;7397992;19;20609;-76
2022/10/29 04:24:50;;;;;;;7.32;2.75;;;;;17.70;94758.00;;;;7395788;19;20153;-76
2022/10/29 04:27:44;;;;;;;11.82;3.35;;;;;17.50;94762.00;;;;7393670;19;20174;-75
2022/10/29 04:30:32;;;;;;;11.73;3.53;;;;;17.50;94763.00;;;;7394491;19;20584;-76
2022/10/29 04:33:06;;;;;;;7.45;2.50;;;;;17.70;94768.00;;;;7393264;19;20160;-76
2022/10/29 04:35:34;;;;;;;8.50;2.63;;;;;17.80;94764.00;;;;7393379;19;20125;-75
2022/10/29 04:38:17;;;;;;;8.95;2.92;;;;;17.90;94770.00;;;;7393203;19;20136;-76
2022/10/29 04:40:59;;;;;;;7.90;2.63;;;;;17.90;94770.00;;;;7393282;19;20600;-75
2022/10/29 04:43:31;;;;;;;13.95;3.08;;;;;17.80;94771.00;;;;7395771;19;20137;-76
2022/10/29 04:46:04;;;;;;;9.90;2.95;;;;;17.50;94769.00;;;;7392825;19;20158;-76
2022/10/29 04:48:32;;;;;;;12.30;3.33;;;;;17.50;94770.00;;;;7392931;19;20141;-76
2022/10/29 04:50:59;;;;;;;8.35;3.35;;;;;17.30;94772.00;;;;7394378;19;20466;-74
2022/10/29 04:53:33;;;;;;;13.43;2.60;;;;;17.40;94772.00;;;;7395747;19;20615;-75
2022/10/29 04:56:04;;;;;;;14.68;3.00;;;;;16.90;94766.00;;;;7393742;19;20215;-74
2022/10/29 04:58:31;;;;;;;11.55;2.85;;;;;17.00;94774.00;;;;7394188;19;20192;-75
2022/10/29 05:01:12;;;;;;;9.32;2.78;;;;;17.00;94773.00;;;;7394947;19;20133;-77
2022/10/29 05:03:40;;;;;;;10.35;2.67;;;;;16.80;94786.00;;;;7395525;19;20160;-76
2022/10/29 05:06:14;;;;;;;7.90;2.80;;;;;16.40;94785.00;;;;7393472;19;20140;-74
2022/10/29 05:08:43;;;;;;;7.43;2.70;;;;;16.90;94771.00;;;;7395600;19;20140;-76
2022/10/29 05:11:11;;;;;;;9.85;2.92;;;;;17.10;94776.00;;;;7395619;19;20544;-76
2022/10/29 05:13:51;;;;;;;7.78;2.70;;;;;17.00;94770.00;;;;7396624;19;20136;-76
2022/10/29 05:16:19;;;;;;;17.55;3.60;;;;;16.80;94771.00;;;;7394894;19;20132;-75
2022/10/29 05:18:46;;;;;;;9.38;2.53;;;;;17.10;94762.00;;;;7394384;19;20133;-76
2022/10/29 05:21:20;;;;;;;8.60;2.83;;;;;17.00;94763.00;;;;7394187;19;20508;-76
2022/10/29 05:23:47;;;;;;;13.57;3.30;;;;;17.10;94764.00;;;;7394093;19;20224;-77
2022/10/29 05:26:15;;;;;;;11.30;2.88;;;;;17.00;94762.00;;;;7392984;19;20213;-75
2022/10/29 05:28:50;;;;;;;7.85;3.05;;;;;16.80;94765.00;;;;7395145;19;20183;-77
2022/10/29 05:31:18;;;;;;;8.80;2.88;;;;;16.70;94769.00;;;;7396008;19;20139;-75
2022/10/29 05:33:45;;;;;;;10.00;2.90;;;;;16.80;94757.00;;;;7396588;19;20596;-76
2022/10/29 05:36:24;;;;;;;12.77;2.90;;;;;16.90;94752.00;;;;7394328;19;20583;-76
2022/10/29 05:38:51;;;;;;;13.90;3.00;;;;;16.80;94759.00;;;;7396325;19;20113;-76
2022/10/29 05:41:21;;;;;;;6.00;2.95;;;;;16.50;94756.00;;;;7395147;19;20647;-74
2022/10/29 05:43:55;;;;;;;8.90;3.22;;;;;16.50;94761.00;;;;7395826;19;20587;-74
2022/10/29 05:46:22;;;;;;;10.30;3.20;;;;;16.50;94762.00;;;;7395409;19;20667;-74
2022/10/29 05:48:52;;;;;;;7.97;3.13;;;;;16.50;94767.00;;;;7394525;19;20616;-75
2022/10/29 05:51:26;;;;;;;12.00;2.97;;;;;16.60;94765.00;;;;7395316;19;20587;-76
2022/10/29 05:53:53;;;;;;;7.40;2.47;;;;;16.50;94758.00;;;;7395351;19;20192;-75
2022/10/29 05:56:22;;;;;;;10.88;2.67;;;;;16.70;94756.00;;;;7393421;19;20192;-74
2022/10/29 05:59:03;;;;;;;14.23;2.83;;;;;16.80;94757.00;;;;7393390;19;20704;-75
2022/10/29 06:01:30;;;;;;;20.80;3.30;;;;;16.80;94760.00;;;;7390817;19;20153;-76
2022/10/29 06:04:04;;;;;;;10.52;2.83;;;;;16.80;94754.00;;;;7393396;19;20140;-74
2022/10/29 06:06:32;;;;;;;10.05;3.03;;;;;16.80;94759.00;;;;7390229;19;20159;-75
2022/10/29 06:09:00;;;;;;;12.70;3.25;;;;;16.70;94765.00;;;;7393213;19;20157;-74
2022/10/29 06:11:34;;;;;;;7.95;2.75;;;;;17.00;94761.00;;;;7391979;19;20155;-74
2022/10/29 06:14:02;;;;;;;9.07;2.80;;;;;16.70;94760.00;;;;7392510;19;20143;-77
2022/10/29 06:16:32;;;;;;;10.88;3.10;;;;;16.60;94762.00;;;;7391619;19;20121;-76
2022/10/29 06:19:06;;;;;;;12.60;3.35;;;;;16.60;94763.00;;;;7394083;19;20129;-76
2022/10/29 06:21:34;;;;;;;10.00;3.00;;;;;16.70;94767.00;;;;7393789;19;20144;-77
2022/10/29 06:24:02;;;;;;;8.70;2.80;;;;;17.00;94757.00;;;;7391494;19;20159;-76
2022/10/29 06:26:36;;;;;;;9.57;2.85;;;;;16.90;94761.00;;;;7392291;19;20157;-76
2022/10/29 06:29:04;;;;;;;16.05;3.13;;;;;17.30;94774.00;;;;7389385;19;20181;-74
2022/10/29 06:31:31;;;;;;;9.93;2.80;;;;;17.30;94771.00;;;;7391533;19;20226;-76
2022/10/29 06:34:05;;;;;;;15.85;3.00;;;;;17.20;94781.00;;;;7391608;19;20608;-77
2022/10/29 06:36:32;;;;;;;11.50;2.85;;;;;17.00;94775.00;;;;7390419;19;20166;-76
2022/10/29 06:39:00;;;;;;;9.80;3.00;;;;;16.50;94781.00;;;;7390982;19;20177;-76
2022/10/29 06:41:34;;;;;;;10.32;3.60;;;;;16.00;94783.00;;;;7389208;19;20491;-76
2022/10/29 06:44:01;;;;;;;11.50;3.15;;;;;15.70;94785.00;;;;7390798;19;20125;-76
2022/10/29 06:46:29;;;;;;;14.55;3.25;;;;;15.60;94787.00;;;;7390069;19;20128;-77
2022/10/29 06:49:03;;;;;;;14.25;3.05;;;;;15.40;94788.00;;;;7391598;19;20561;-76
2022/10/29 06:51:34;;;;;;;10.32;3.22;;;;;15.20;94788.00;;;;7388629;19;20144;-76
2022/10/29 06:54:04;;;;;;;16.00;3.05;;;;;15.30;94791.00;;;;7389872;19;20137;-76
2022/10/29 06:56:38;;;;;;;9.73;3.00;;;;;15.40;94783.00;;;;7395993;19;20609;-76
2022/10/29 06:59:18;;;;;;;9.70;2.72;;;;;15.70;94780.00;;;;7396895;19;20654;-76
2022/10/29 07:01:53;;;;;;;13.65;3.55;;;;;15.90;94788.00;;;;7396376;19;20149;-77
2022/10/29 07:04:25;;;;;;;11.57;3.33;;;;;15.90;94791.00;;;;7396500;19;20610;-76
2022/10/29 07:06:52;;;;;;;9.55;3.00;;;;;16.10;94781.00;;;;7398050;19;20623;-77
2022/10/29 07:09:27;;;;;;;12.35;3.20;;;;;16.20;94793.00;;;;7398897;19;20469;-77
2022/10/29 07:11:54;;;;;;;12.48;3.28;;;;;16.40;94782.00;;;;7394141;19;20156;-77
2022/10/29 07:14:21;;;;;;;6.50;3.20;;;;;16.30;94784.00;;;;7398349;19;20595;-77
2022/10/29 07:16:58;;;;;;;10.13;3.13;;;;;16.50;94789.00;;;;7397111;19;20154;-76
2022/10/29 07:19:26;;;;;;;7.70;2.67;;;;;16.60;94786.00;;;;7394870;19;20162;-77
2022/10/29 07:21:53;;;;;;;6.38;2.97;;;;;17.00;94781.00;;;;7395676;19;20676;-77
2022/10/29 07:24:27;;;;;;;13.85;3.40;;;;;17.60;94793.00;;;;7396573;19;20151;-76
2022/10/29 07:26:55;;;;;;;7.72;3.10;;;;;17.90;94789.00;;;;7399991;19;20137;-76
2022/10/29 07:29:22;;;;;;;11.30;3.13;;;;;18.20;94776.00;;;;7396052;19;20168;-76
2022/10/29 07:31:56;;;;;;;6.85;2.70;;;;;18.70;94780.00;;;;7397726;19;20132;-76
2022/10/29 07:34:26;;;;;;;8.65;2.72;;;;;19.20;94778.00;;;;7395910;19;20148;-77
2022/10/29 07:36:53;;;;;;;10.80;2.88;;;;;19.60;94771.00;;;;7396751;19;20133;-77
2022/10/29 07:39:27;;;;;;;10.55;3.00;;;;;20.10;94777.00;;;;7393728;19;20478;-77
2022/10/29 07:41:57;;;;;;;8.63;3.05;;;;;20.40;94784.00;;;;7395647;19;20129;-77
2022/10/29 07:44:25;;;;;;;11.77;3.00;;;;;20.50;94778.00;;;;7394096;19;20168;-75
2022/10/29 07:47:01;;;;;;;11.38;2.83;;;;;20.50;94784.00;;;;7396034;19;20143;-76
2022/10/29 07:49:29;;;;;;;13.05;3.20;;;;;20.70;94787.00;;;;7396756;19;20729;-77
2022/10/29 07:51:56;;;;;;;8.48;2.67;;;;;20.80;94781.00;;;;7397460;19;20509;-77
2022/10/29 07:54:30;;;;;;;9.52;3.05;;;;;21.00;94780.00;;;;7394588;19;20129;-78
2022/10/29 07:56:58;;;;;;;15.25;3.10;;;;;21.80;94775.00;;;;7397534;19;20144;-77
2022/10/29 07:59:25;;;;;;;14.35;3.25;;;;;22.40;94775.00;;;;7391500;19;20187;-77
2022/10/29 08:02:09;;;;;;;12.10;2.90;;;;;23.00;94780.00;;;;7394813;19;20143;-77
2022/10/29 08:04:36;;;;;;;6.97;2.53;;;;;23.60;94786.00;;;;7396262;19;20664;-78
2022/10/29 08:07:10;;;;;;;10.15;3.08;;;;;23.90;94785.00;;;;7394377;19;20177;-77
2022/10/29 08:09:39;;;;;;;11.32;3.25;;;;;24.20;94778.00;;;;7397907;19;20180;-77
2022/10/29 08:12:10;;;;;;;15.00;3.38;;;;;24.50;94781.00;;;;7396469;19;20129;-76
2022/10/29 08:14:45;;;;;;;14.43;3.17;;;;;24.60;94785.00;;;;7398956;19;20148;-75
2022/10/29 08:17:12;;;;;;;12.20;3.22;;;;;25.20;94787.00;;;;7394959;19;20152;-76
2022/10/29 08:19:40;;;;;;;7.15;3.08;;;;;24.90;94784.00;;;;7397230;19;20133;-76
2022/10/29 08:22:13;;;;;;;9.95;2.70;;;;;25.30;94784.00;;;;7395499;19;20164;-77
2022/10/29 08:24:41;;;;;;;10.45;2.70;;;;;25.40;94785.00;;;;7394761;19;20236;-75
2022/10/29 08:27:08;;;;;;;9.82;3.25;;;;;25.80;94778.00;;;;7395784;19;20227;-77
2022/10/29 08:29:42;;;;;;;17.58;3.08;;;;;25.70;94780.00;;;;7397143;19;20149;-76
2022/10/29 08:32:10;;;;;;;14.05;3.55;;;;;26.20;94789.00;;;;7396466;19;20648;-77
2022/10/29 08:34:37;;;;;;;8.38;2.88;;;;;25.90;94788.00;;;;7394860;19;20157;-76
2022/10/29 08:37:11;;;;;;;15.50;3.67;;;;;25.90;94789.00;;;;7395442;19;20132;-76
2022/10/29 08:39:39;;;;;;;10.93;3.22;;;;;26.40;94784.00;;;;7392421;19;20129;-77
2022/10/29 08:42:34;;;;;;;15.35;3.30;;;;;26.40;94792.00;;;;7395015;19;20515;-77
2022/10/29 08:45:26;;;;;;;11.85;3.47;;;;;26.10;94795.00;;;;7394993;19;20151;-76
2022/10/29 08:47:54;;;;;;;9.35;2.72;;;;;26.50;94790.00;;;;7392366;19;20144;-77
2022/10/29 08:50:33;;;;;;;15.90;3.67;;;;;27.20;94797.00;;;;7393380;19;20141;-76
2022/10/29 08:53:01;;;;;;;12.20;2.83;;;;;27.30;94795.00;;;;7389950;19;20211;-76
2022/10/29 08:55:50;;;;;;;13.52;2.83;;;;;27.30;94802.00;;;;7395726;19;20144;-77
2022/10/29 08:58:35;;;;;;;10.20;2.70;;;;;27.20;94797.00;;;;7392754;19;20143;-76
2022/10/29 09:01:12;;;;;;;15.55;3.30;;;;;28.10;94803.00;;;;7394438;19;20167;-78
2022/10/29 09:03:40;;;;;;;14.30;2.92;;;;;27.40;94812.00;;;;7394119;19;20610;-77
2022/10/29 09:06:25;;;;;;;10.90;3.35;;;;;27.30;94812.00;;;;7395530;19;20172;-77
2022/10/29 09:09:23;;;;;;;10.30;3.17;;;;;27.70;94817.00;;;;7394164;19;20159;-76
2022/10/29 09:12:00;;;;;;;18.63;3.58;;;;;27.90;94812.00;;;;7396755;19;20159;-77
2022/10/29 09:15:09;;;;;;;17.38;3.90;;;;;27.50;94809.00;;;;7395522;19;20452;-76
2022/10/29 09:17:49;;;;;;;12.00;3.47;;;;;28.30;94806.00;;;;7396091;19;20128;-76
2022/10/29 09:20:54;;;;;;;12.55;2.92;;;;;29.00;94800.00;;;;7394160;19;20172;-77
2022/10/29 09:23:52;;;;;;;7.97;2.53;;;;;29.30;94797.00;;;;7395425;19;20211;-77
2022/10/29 09:26:35;;;;;;;10.70;3.15;;;;;29.40;94798.00;;;;7392991;19;20228;-76
2022/10/29 09:29:35;;;;;;;7.07;3.10;;;;;29.80;94797.00;;;;7391911;19;20643;-77
2022/10/29 09:32:15;;;;;;;13.38;3.72;;;;;29.50;94795.00;;;;7390514;19;20147;-76
2022/10/29 09:34:49;;;;;;;8.43;2.95;;;;;29.40;94791.00;;;;7390821;19;20148;-76
2022/10/29 09:37:55;;;;;;;10.35;2.80;;;;;29.60;94785.00;;;;7399215;19;20133;-77
2022/10/29 09:40:28;;;;;;;8.35;2.80;;;;;29.30;94785.00;;;;7394763;19;20156;-76
2022/10/29 09:43:10;;;;;;;21.35;3.78;;;;;29.70;94790.00;;;;7392892;19;20484;-77
2022/10/29 09:45:46;;;;;;;10.43;3.00;;;;;30.30;94792.00;;;;7394953;19;20151;-75
2022/10/29 09:48:47;;;;;;;8.55;2.60;;;;;30.30;94799.00;;;;7393108;19;20179;-78
2022/10/29 09:51:44;;;;;;;10.77;2.65;;;;;30.50;94793.00;;;;7397119;19;20593;-77
2022/10/29 09:54:18;;;;;;;7.85;2.72;;;;;30.70;94797.00;;;;7395566;19;20647;-76
2022/10/29 09:56:46;;;;;;;10.15;2.60;;;;;30.50;94796.00;;;;7395619;19;20132;-77
2022/10/29 09:59:30;;;;;;;9.77;2.55;;;;;30.80;94791.00;;;;7389000;19;20151;-79
2022/10/29 10:02:31;;;;;;;9.45;2.30;;;;;30.60;94793.00;;;;7396757;19;20607;-77
2022/10/29 10:05:12;;;;;;;9.77;2.47;;;;;30.80;94792.00;;;;7394324;19;20192;-76
2022/10/29 10:08:05;;;;;;;7.28;2.35;;;;;30.90;94795.00;;;;7393843;19;20140;-76
2022/10/29 10:10:35;;;;;;;7.32;2.28;;;;;30.30;94796.00;;;;7393523;19;20136;-77
2022/10/29 10:13:13;;;;;;;11.45;2.42;;;;;30.90;94794.00;;;;7393363;19;20147;-79
2022/10/29 10:15:55;;;;;;;12.13;2.30;;;;;31.00;94792.00;;;;7391970;19;20144;-78
2022/10/29 10:18:40;;;;;;;9.40;2.85;;;;;31.10;94801.00;;;;7391516;19;20132;-77
2022/10/29 10:21:30;;;;;;;9.00;3.50;;;;;31.30;94807.00;;;;7394964;19;20147;-78
2022/10/29 10:24:29;;;;;;;11.45;2.45;;;;;31.60;94810.00;;;;7392313;19;20152;-77
2022/10/29 10:26:57;;;;;;;11.18;2.95;;;;;31.40;94802.00;;;;7392823;19;20170;-77
2022/10/29 10:29:31;;;;;;;12.05;3.80;;;;;31.00;94805.00;;;;7388929;19;20175;-79
2022/10/29 10:32:09;;;;;;;10.88;3.50;;;;;31.00;94806.00;;;;7397756;19;20156;-75
2022/10/29 10:34:43;;;;;;;16.92;2.97;;;;;31.50;94801.00;;;;7398811;19;20144;-77
2022/10/29 10:37:17;;;;;;;8.40;3.40;;;;;31.20;94815.00;;;;7400212;19;20128;-79
2022/10/29 10:40:01;;;;;;;12.77;4.10;;;;;31.90;94809.00;;;;7398516;19;20132;-79
2022/10/29 10:42:35;;;;;;;9.00;3.88;;;;;32.20;94803.00;;;;7396893;19;20603;-75
2022/10/29 10:45:16;;;;;;;15.05;4.43;;;;;32.10;94804.00;;;;7394492;19;20611;-78
2022/10/29 10:47:50;;;;;;;10.07;4.45;;;;;32.30;94803.00;;;;7399896;19;20243;-78
2022/10/29 10:50:29;;;;;;;8.65;4.70;;;;;32.00;94797.00;;;;7395222;19;20610;-76
2022/10/29 10:53:01;;;;;;;16.60;6.47;;;;;32.20;94794.00;;;;7397458;19;20598;-77
2022/10/29 10:55:45;;;;;;;20.13;4.72;;;;;31.20;94795.00;;;;7399730;19;20179;-77
2022/10/29 10:58:33;;;;;;;8.05;4.20;;;;;31.70;94789.00;;;;7402616;19;20135;-79
2022/10/29 11:01:41;;;;;;;13.27;4.60;;;;;31.20;94797.00;;;;7396351;19;20151;-78
2022/10/29 11:04:16;;;;;;;13.95;4.90;;;;;30.90;94785.00;;;;7398737;19;20140;-78
2022/10/29 11:06:54;;;;;;;11.52;4.47;;;;;30.20;94780.00;;;;7395780;19;20392;-77
2022/10/29 11:09:36;;;;;;;16.13;4.68;;;;;31.00;94779.00;;;;7397454;19;20666;-80
2022/10/29 11:12:19;;;;;;;9.90;4.45;;;;;31.30;94785.00;;;;7400869;19;20587;-78
2022/10/29 11:14:59;;;;;;;12.75;4.68;;;;;31.60;94778.00;;;;7398488;19;20136;-77
2022/10/29 11:17:38;;;;;;;10.02;4.32;;;;;30.70;94779.00;;;;7396121;19;20144;-78
2022/10/29 11:20:27;;;;;;;11.57;4.05;;;;;30.20;94781.00;;;;7399726;19;20132;-79
2022/10/29 11:23:27;;;;;;;14.68;4.68;;;;;30.70;94781.00;;;;7398416;19;20212;-78
2022/10/29 11:26:16;;;;;;;10.48;4.30;;;;;30.60;94779.00;;;;7400278;19;20140;-76
2022/10/29 11:28:55;;;;;;;14.88;4.35;;;;;30.70;94777.00;;;;7394719;19;20669;-77
2022/10/29 11:31:44;;;;;;;9.63;4.03;;;;;30.40;94782.00;;;;7397937;19;20144;-78
2022/10/29 11:34:38;;;;;;;14.02;4.70;;;;;29.10;94780.00;;;;7393812;19;20221;-79
2022/10/29 11:37:19;;;;;;;10.88;4.63;;;;;28.70;94779.00;;;;7395447;19;20171;-76
2022/10/29 11:40:39;;;;;;;13.05;4.40;;;;;28.60;94772.00;;;;7400545;19;20140;-77
2022/10/29 11:43:16;;;;;;;10.73;4.53;;;;;28.90;94770.00;;;;7394491;19;20152;-75
2022/10/29 11:46:11;;;;;;;19.15;4.90;;;;;29.10;94770.00;;;;7397718;19;20595;-76
2022/10/29 11:48:58;;;;;;;14.73;4.70;;;;;29.30;94763.00;;;;7392867;19;20594;-78
2022/10/29 11:52:03;;;;;;;19.08;4.97;;;;;28.90;94758.00;;;;7395021;19;20154;-77
2022/10/29 11:55:08;;;;;;;15.80;4.75;;;;;29.30;94754.00;;;;7393306;19;20132;-77
2022/10/29 11:57:52;;;;;;;14.98;4.32;;;;;29.60;94756.00;;;;7398010;19;20600;-76
2022/10/29 12:00:32;;;;;;;10.32;4.22;;;;;29.30;94747.00;;;;7392686;19;20630;-76
2022/10/29 12:03:30;;;;;;;14.70;5.32;;;;;29.50;94743.00;;;;7399146;19;20141;-77
2022/10/29 12:06:16;;;;;;;13.98;4.25;;;;;29.20;94753.00;;;;7399453;19;20180;-76
2022/10/29 12:09:16;;;;;;;13.43;4.22;;;;;27.10;94754.00;;;;7393976;19;20709;-77
2022/10/29 12:11:54;;;;;;;10.18;4.00;;;;;26.30;94751.00;;;;7396214;19;20219;-77
2022/10/29 12:14:50;;;;;;;12.95;3.90;;;;;26.20;94753.00;;;;7394676;19;20232;-76
2022/10/29 12:17:30;;;;;;;11.70;4.22;;;;;26.00;94753.00;;;;7396501;19;20522;-76
2022/10/29 12:20:26;;;;;;;11.55;4.40;;;;;26.00;94748.00;;;;7398548;19;20137;-77
2022/10/29 12:23:24;;;;;;;15.02;4.25;;;;;26.70;94728.00;;;;7397404;19;20171;-76
2022/10/29 12:26:10;;;;;;;16.73;4.10;;;;;27.40;94733.00;;;;7399020;19;20167;-77
2022/10/29 12:28:55;;;;;;;9.35;3.60;;;;;27.00;94723.00;;;;7393395;19;20148;-79
2022/10/29 12:31:49;;;;;;;10.18;3.80;;;;;26.80;94726.00;;;;7398861;19;20160;-77
2022/10/29 12:34:36;;;;;;;9.80;3.75;;;;;26.40;94713.00;;;;7394041;19;20150;-77
2022/10/29 12:38:03;;;;;;;10.32;3.65;;;;;26.90;94709.00;;;;7398524;19;20144;-78
2022/10/29 12:40:36;;;;;;;9.60;3.85;;;;;26.90;94711.00;;;;7392722;19;20230;-77
2022/10/29 12:43:26;;;;;;;13.40;4.32;;;;;27.00;94711.00;;;;7396405;19;20150;-78
2022/10/29 12:46:05;;;;;;;10.57;3.75;;;;;27.20;94704.00;;;;7400457;19;20141;-76
2022/10/29 12:49:14;;;;;;;11.65;3.70;;;;;27.00;94704.00;;;;7395799;19;20151;-76
2022/10/29 12:51:57;;;;;;;9.88;3.50;;;;;27.40;94702.00;;;;7396980;19;20607;-77
2022/10/29 12:54:36;;;;;;;12.98;3.40;;;;;27.30;94696.00;;;;7392933;19;20548;-76
2022/10/29 12:57:18;;;;;;;15.55;4.10;;;;;27.10;94696.00;;;;7394925;19;20168;-77
2022/10/29 13:00:31;;;;;;;9.75;3.88;;;;;27.70;94688.00;;;;7393931;19;20620;-76